sensor_id;sensor_type;location;lat;lon;timestamp;temperature;humidity
70170;DHT22;57543;45.442;9.212;2023-04-01T00:02:34;13.80;67.14
70170;DHT22;57543;45.442;9.212;2023-04-01T00:05:38;13.76;67.50
70170;DHT22;57543;45.442;9.212;2023-04-01T00:08:42;13.77;67.32
70170;DHT22;57543;45.442;9.212;2023-04-01T00:11:46;13.76;67.38
70170;DHT22;57543;45.442;9.212;2023-04-01T00:14:50;13.62;67.39
70170;DHT22;57543;45.442;9.212;2023-04-01T00:17:54;13.62;67.50
70170;DHT22;57543;45.442;9.212;2023-04-01T00:20:58;13.45;67.93
70170;DHT22;57543;45.442;9.212;2023-04-01T00:24:01;13.34;68.31
70170;DHT22;57543;45.442;9.212;2023-04-01T00:27:05;13.38;67.98
70170;DHT22;57543;45.442;9.212;2023-04-01T00:30:11;13.35;67.92
70170;DHT22;57543;45.442;9.212;2023-04-01T00:33:15;13.28;67.88
70170;DHT22;57543;45.442;9.212;2023-04-01T00:36:20;13.19;68.06
70170;DHT22;57543;45.442;9.212;2023-04-01T00:39:31;13.17;68.39
70170;DHT22;57543;45.442;9.212;2023-04-01T00:42:36;13.17;68.05
70170;DHT22;57543;45.442;9.212;2023-04-01T00:45:42;13.04;68.50
70170;DHT22;57543;45.442;9.212;2023-04-01T00:48:54;12.86;69.11
70170;DHT22;57543;45.442;9.212;2023-04-01T00:52:00;12.90;68.77
70170;DHT22;57543;45.442;9.212;2023-04-01T00:55:06;12.90;68.69
70170;DHT22;57543;45.442;9.212;2023-04-01T00:58:14;12.96;68.47
70170;DHT22;57543;45.442;9.212;2023-04-01T01:01:23;12.96;68.55
70170;DHT22;57543;45.442;9.212;2023-04-01T01:04:30;13.06;67.94
70170;DHT22;57543;45.442;9.212;2023-04-01T01:08:23;13.03;68.03
70170;DHT22;57543;45.442;9.212;2023-04-01T01:11:35;13.06;67.84
70170;DHT22;57543;45.442;9.212;2023-04-01T01:15:05;13.10;67.72
70170;DHT22;57543;45.442;9.212;2023-04-01T01:18:34;13.03;67.72
70170;DHT22;57543;45.442;9.212;2023-04-01T01:22:00;13.03;67.92
70170;DHT22;57543;45.442;9.212;2023-04-01T01:28:41;12.94;67.69
70170;DHT22;57543;45.442;9.212;2023-04-01T01:38:27;12.75;67.78
70170;DHT22;57543;45.442;9.212;2023-04-01T01:41:38;12.80;67.70
70170;DHT22;57543;45.442;9.212;2023-04-01T01:44:44;12.66;67.96
70170;DHT22;57543;45.442;9.212;2023-04-01T01:47:48;12.55;68.01
70170;DHT22;57543;45.442;9.212;2023-04-01T01:50:53;12.50;68.23
70170;DHT22;57543;45.442;9.212;2023-04-01T01:53:58;12.49;68.47
70170;DHT22;57543;45.442;9.212;2023-04-01T01:57:07;12.46;68.52
70170;DHT22;57543;45.442;9.212;2023-04-01T02:00:13;12.44;68.49
70170;DHT22;57543;45.442;9.212;2023-04-01T02:03:21;12.27;68.84
70170;DHT22;57543;45.442;9.212;2023-04-01T02:06:28;12.07;69.12
70170;DHT22;57543;45.442;9.212;2023-04-01T02:09:32;11.98;69.66
70170;DHT22;57543;45.442;9.212;2023-04-01T02:12:41;11.89;70.05
70170;DHT22;57543;45.442;9.212;2023-04-01T02:15:49;12.04;69.61
70170;DHT22;57543;45.442;9.212;2023-04-01T02:18:55;11.97;69.69
70170;DHT22;57543;45.442;9.212;2023-04-01T02:22:01;12.01;69.56
70170;DHT22;57543;45.442;9.212;2023-04-01T02:25:09;11.98;69.58
70170;DHT22;57543;45.442;9.212;2023-04-01T02:28:13;11.95;69.86
70170;DHT22;57543;45.442;9.212;2023-04-01T02:31:20;12.07;69.61
70170;DHT22;57543;45.442;9.212;2023-04-01T02:34:25;12.07;69.47
70170;DHT22;57543;45.442;9.212;2023-04-01T02:37:28;12.01;69.61
70170;DHT22;57543;45.442;9.212;2023-04-01T02:40:49;12.00;69.71
70170;DHT22;57543;45.442;9.212;2023-04-01T02:43:54;12.01;69.73
70170;DHT22;57543;45.442;9.212;2023-04-01T02:46:58;12.04;69.91
70170;DHT22;57543;45.442;9.212;2023-04-01T02:50:01;12.14;69.69
70170;DHT22;57543;45.442;9.212;2023-04-01T02:53:05;12.18;69.38
70170;DHT22;57543;45.442;9.212;2023-04-01T02:56:10;12.21;69.25
70170;DHT22;57543;45.442;9.212;2023-04-01T02:59:13;12.11;69.38
70170;DHT22;57543;45.442;9.212;2023-04-01T03:02:17;12.00;69.73
70170;DHT22;57543;45.442;9.212;2023-04-01T03:05:21;11.93;69.86
70170;DHT22;57543;45.442;9.212;2023-04-01T03:08:25;11.98;69.60
70170;DHT22;57543;45.442;9.212;2023-04-01T03:11:28;11.91;69.98
70170;DHT22;57543;45.442;9.212;2023-04-01T03:14:32;11.91;69.94
70170;DHT22;57543;45.442;9.212;2023-04-01T03:17:36;11.87;70.15
70170;DHT22;57543;45.442;9.212;2023-04-01T03:20:39;11.89;70.05
70170;DHT22;57543;45.442;9.212;2023-04-01T03:23:43;11.90;70.11
70170;DHT22;57543;45.442;9.212;2023-04-01T03:26:46;11.98;69.86
70170;DHT22;57543;45.442;9.212;2023-04-01T03:29:50;12.02;69.57
70170;DHT22;57543;45.442;9.212;2023-04-01T03:32:54;12.04;69.57
70170;DHT22;57543;45.442;9.212;2023-04-01T03:35:58;11.95;69.50
70170;DHT22;57543;45.442;9.212;2023-04-01T03:39:02;11.82;70.08
70170;DHT22;57543;45.442;9.212;2023-04-01T03:42:14;11.86;70.13
70170;DHT22;57543;45.442;9.212;2023-04-01T03:45:18;11.80;70.19
70170;DHT22;57543;45.442;9.212;2023-04-01T03:48:21;11.76;70.21
70170;DHT22;57543;45.442;9.212;2023-04-01T03:51:25;11.74;70.30
70170;DHT22;57543;45.442;9.212;2023-04-01T03:54:29;11.74;69.94
70170;DHT22;57543;45.442;9.212;2023-04-01T03:57:32;11.70;70.09
70170;DHT22;57543;45.442;9.212;2023-04-01T04:00:42;11.69;70.19
70170;DHT22;57543;45.442;9.212;2023-04-01T04:03:46;11.62;70.29
70170;DHT22;57543;45.442;9.212;2023-04-01T04:06:52;11.70;70.23
70170;DHT22;57543;45.442;9.212;2023-04-01T04:09:58;11.66;70.15
70170;DHT22;57543;45.442;9.212;2023-04-01T04:13:01;11.66;70.21
70170;DHT22;57543;45.442;9.212;2023-04-01T04:16:08;11.62;70.15
70170;DHT22;57543;45.442;9.212;2023-04-01T04:19:14;11.59;70.15
70170;DHT22;57543;45.442;9.212;2023-04-01T04:22:18;11.59;70.08
70170;DHT22;57543;45.442;9.212;2023-04-01T04:25:22;11.54;70.11
70170;DHT22;57543;45.442;9.212;2023-04-01T04:28:27;11.52;70.09
70170;DHT22;57543;45.442;9.212;2023-04-01T04:31:30;11.51;70.21
70170;DHT22;57543;45.442;9.212;2023-04-01T04:34:36;11.45;69.94
70170;DHT22;57543;45.442;9.212;2023-04-01T04:37:39;11.48;69.43
70170;DHT22;57543;45.442;9.212;2023-04-01T04:40:44;11.54;69.05
70170;DHT22;57543;45.442;9.212;2023-04-01T04:43:54;11.46;69.12
70170;DHT22;57543;45.442;9.212;2023-04-01T04:46:58;11.46;69.23
70170;DHT22;57543;45.442;9.212;2023-04-01T04:50:03;11.52;69.11
70170;DHT22;57543;45.442;9.212;2023-04-01T04:53:08;11.52;68.82
70170;DHT22;57543;45.442;9.212;2023-04-01T04:56:12;11.49;68.85
70170;DHT22;57543;45.442;9.212;2023-04-01T04:59:24;11.49;68.79
70170;DHT22;57543;45.442;9.212;2023-04-01T05:02:36;11.49;68.74
70170;DHT22;57543;45.442;9.212;2023-04-01T05:05:47;11.52;68.57
70170;DHT22;57543;45.442;9.212;2023-04-01T05:08:51;11.55;68.56
70170;DHT22;57543;45.442;9.212;2023-04-01T05:11:54;11.58;68.56
70170;DHT22;57543;45.442;9.212;2023-04-01T05:14:59;11.58;68.58
70170;DHT22;57543;45.442;9.212;2023-04-01T05:18:03;11.56;68.57
70170;DHT22;57543;45.442;9.212;2023-04-01T05:21:09;11.62;68.40
70170;DHT22;57543;45.442;9.212;2023-04-01T05:24:13;11.65;68.05
70170;DHT22;57543;45.442;9.212;2023-04-01T05:27:16;11.65;68.18
70170;DHT22;57543;45.442;9.212;2023-04-01T05:30:20;11.66;68.31
70170;DHT22;57543;45.442;9.212;2023-04-01T05:33:37;11.74;67.91
70170;DHT22;57543;45.442;9.212;2023-04-01T05:36:42;11.72;67.86
70170;DHT22;57543;45.442;9.212;2023-04-01T05:39:46;11.69;67.96
70170;DHT22;57543;45.442;9.212;2023-04-01T05:42:50;11.70;67.86
70170;DHT22;57543;45.442;9.212;2023-04-01T05:45:54;11.69;67.83
70170;DHT22;57543;45.442;9.212;2023-04-01T05:49:27;11.73;67.68
70170;DHT22;57543;45.442;9.212;2023-04-01T05:52:30;11.73;67.82
70170;DHT22;57543;45.442;9.212;2023-04-01T05:55:35;11.70;68.05
70170;DHT22;57543;45.442;9.212;2023-04-01T05:58:38;11.62;68.26
70170;DHT22;57543;45.442;9.212;2023-04-01T06:01:44;11.66;68.35
70170;DHT22;57543;45.442;9.212;2023-04-01T06:04:49;11.73;68.00
70170;DHT22;57543;45.442;9.212;2023-04-01T06:07:59;11.80;67.62
70170;DHT22;57543;45.442;9.212;2023-04-01T06:11:22;11.86;67.07
70170;DHT22;57543;45.442;9.212;2023-04-01T06:18:20;11.80;67.37
70170;DHT22;57543;45.442;9.212;2023-04-01T06:21:37;11.89;67.45
70170;DHT22;57543;45.442;9.212;2023-04-01T06:25:13;11.95;67.14
70170;DHT22;57543;45.442;9.212;2023-04-01T06:32:08;12.02;66.92
70170;DHT22;57543;45.442;9.212;2023-04-01T06:45:53;12.32;65.23
70170;DHT22;57543;45.442;9.212;2023-04-01T06:53:31;12.24;63.36
70170;DHT22;57543;45.442;9.212;2023-04-01T06:57:00;12.25;63.29
70170;DHT22;57543;45.442;9.212;2023-04-01T07:00:14;12.31;62.79
70170;DHT22;57543;45.442;9.212;2023-04-01T07:03:40;12.46;62.34
70170;DHT22;57543;45.442;9.212;2023-04-01T07:06:50;12.53;62.12
70170;DHT22;57543;45.442;9.212;2023-04-01T07:09:57;12.63;61.74
70170;DHT22;57543;45.442;9.212;2023-04-01T07:13:25;12.84;61.63
70170;DHT22;57543;45.442;9.212;2023-04-01T07:16:38;12.89;61.44
70170;DHT22;57543;45.442;9.212;2023-04-01T07:23:27;13.18;60.28
70170;DHT22;57543;45.442;9.212;2023-04-01T07:26:39;13.29;58.64
70170;DHT22;57543;45.442;9.212;2023-04-01T07:29:49;13.44;58.29
70170;DHT22;57543;45.442;9.212;2023-04-01T07:33:15;13.53;58.38
70170;DHT22;57543;45.442;9.212;2023-04-01T07:39:49;13.86;57.76
70170;DHT22;57543;45.442;9.212;2023-04-01T07:46:52;14.17;57.74
70170;DHT22;57543;45.442;9.212;2023-04-01T07:53:16;14.42;58.04
70170;DHT22;57543;45.442;9.212;2023-04-01T07:59:45;14.72;57.78
70170;DHT22;57543;45.442;9.212;2023-04-01T08:13:31;15.38;56.49
70170;DHT22;57543;45.442;9.212;2023-04-01T08:23:44;16.11;53.19
70170;DHT22;57543;45.442;9.212;2023-04-01T08:26:54;16.38;52.60
70170;DHT22;57543;45.442;9.212;2023-04-01T08:30:24;16.65;52.36
70170;DHT22;57543;45.442;9.212;2023-04-01T08:33:29;16.90;51.85
70170;DHT22;57543;45.442;9.212;2023-04-01T08:36:47;17.11;51.24
70170;DHT22;57543;45.442;9.212;2023-04-01T08:39:57;17.36;50.04
70170;DHT22;57543;45.442;9.212;2023-04-01T08:43:42;17.63;49.84
70170;DHT22;57543;45.442;9.212;2023-04-01T09:01:16;18.80;47.12
70170;DHT22;57543;45.442;9.212;2023-04-01T09:04:32;19.00;46.59
70170;DHT22;57543;45.442;9.212;2023-04-01T09:15:29;19.51;46.27
70170;DHT22;57543;45.442;9.212;2023-04-01T09:22:17;19.88;45.52
70170;DHT22;57543;45.442;9.212;2023-04-01T09:25:26;19.90;45.14
70170;DHT22;57543;45.442;9.212;2023-04-01T09:28:53;19.97;45.08
70170;DHT22;57543;45.442;9.212;2023-04-01T09:35:48;19.98;45.23
70170;DHT22;57543;45.442;9.212;2023-04-01T09:45:37;20.43;45.31
70170;DHT22;57543;45.442;9.212;2023-04-01T09:49:04;20.43;44.30
70170;DHT22;57543;45.442;9.212;2023-04-01T09:52:57;20.55;44.30
70170;DHT22;57543;45.442;9.212;2023-04-01T10:28:13;20.65;41.13
70170;DHT22;57543;45.442;9.212;2023-04-01T10:42:25;20.93;41.99
70170;DHT22;57543;45.442;9.212;2023-04-01T10:46:29;20.95;40.59
70170;DHT22;57543;45.442;9.212;2023-04-01T10:49:46;21.04;40.76
70170;DHT22;57543;45.442;9.212;2023-04-01T11:12:36;21.94;36.46
70170;DHT22;57543;45.442;9.212;2023-04-01T11:15:48;22.38;36.10
70170;DHT22;57543;45.442;9.212;2023-04-01T11:22:45;24.38;32.80
70170;DHT22;57543;45.442;9.212;2023-04-01T11:26:19;25.94;28.50
70170;DHT22;57543;45.442;9.212;2023-04-01T11:33:28;27.80;24.75
70170;DHT22;57543;45.442;9.212;2023-04-01T11:43:32;29.66;21.64
70170;DHT22;57543;45.442;9.212;2023-04-01T11:47:10;29.84;20.69
70170;DHT22;57543;45.442;9.212;2023-04-01T11:57:31;28.37;22.92
70170;DHT22;57543;45.442;9.212;2023-04-01T12:04:05;27.03;23.66
70170;DHT22;57543;45.442;9.212;2023-04-01T12:07:32;26.48;23.78
70170;DHT22;57543;45.442;9.212;2023-04-01T12:14:21;25.49;24.30
70170;DHT22;57543;45.442;9.212;2023-04-01T12:21:14;24.93;24.61
70170;DHT22;57543;45.442;9.212;2023-04-01T12:24:33;24.73;24.18
70170;DHT22;57543;45.442;9.212;2023-04-01T12:27:52;24.60;21.97
70170;DHT22;57543;45.442;9.212;2023-04-01T12:31:06;24.47;21.63
70170;DHT22;57543;45.442;9.212;2023-04-01T12:37:44;24.36;23.36
70170;DHT22;57543;45.442;9.212;2023-04-01T12:44:16;24.22;22.81
70170;DHT22;57543;45.442;9.212;2023-04-01T13:04:44;24.47;21.60
70170;DHT22;57543;45.442;9.212;2023-04-01T13:21:07;24.58;20.76
70170;DHT22;57543;45.442;9.212;2023-04-01T13:24:36;24.73;21.08
70170;DHT22;57543;45.442;9.212;2023-04-01T13:27:44;24.82;22.13
70170;DHT22;57543;45.442;9.212;2023-04-01T13:44:54;25.34;21.86
70170;DHT22;57543;45.442;9.212;2023-04-01T14:01:25;25.06;21.24
70170;DHT22;57543;45.442;9.212;2023-04-01T14:08:13;24.42;22.46
70170;DHT22;57543;45.442;9.212;2023-04-01T14:11:42;24.33;22.32
70170;DHT22;57543;45.442;9.212;2023-04-01T14:15:22;24.35;22.10
70170;DHT22;57543;45.442;9.212;2023-04-01T14:18:43;24.41;23.08
70170;DHT22;57543;45.442;9.212;2023-04-01T14:25:43;24.31;22.21
70170;DHT22;57543;45.442;9.212;2023-04-01T14:29:02;24.17;21.22
70170;DHT22;57543;45.442;9.212;2023-04-01T14:39:28;23.93;21.66
70170;DHT22;57543;45.442;9.212;2023-04-01T14:43:01;24.10;22.43
70170;DHT22;57543;45.442;9.212;2023-04-01T14:49:37;24.00;22.84
70170;DHT22;57543;45.442;9.212;2023-04-01T14:52:56;23.87;22.20
70170;DHT22;57543;45.442;9.212;2023-04-01T14:56:02;23.84;21.55
70170;DHT22;57543;45.442;9.212;2023-04-01T14:59:14;23.80;21.47
70170;DHT22;57543;45.442;9.212;2023-04-01T15:05:49;23.65;22.19
70170;DHT22;57543;45.442;9.212;2023-04-01T15:33:17;24.05;22.39
70170;DHT22;57543;45.442;9.212;2023-04-01T15:43:11;24.14;22.09
70170;DHT22;57543;45.442;9.212;2023-04-01T15:46:41;24.26;22.69
70170;DHT22;57543;45.442;9.212;2023-04-01T15:59:51;24.22;21.84
70170;DHT22;57543;45.442;9.212;2023-04-01T16:10:02;24.14;21.70
70170;DHT22;57543;45.442;9.212;2023-04-01T16:13:24;23.97;20.44
70170;DHT22;57543;45.442;9.212;2023-04-01T16:26:37;23.53;20.01
70170;DHT22;57543;45.442;9.212;2023-04-01T16:29:50;23.37;21.79
70170;DHT22;57543;45.442;9.212;2023-04-01T16:39:44;22.80;22.62
70170;DHT22;57543;45.442;9.212;2023-04-01T16:42:52;22.63;22.62
70170;DHT22;57543;45.442;9.212;2023-04-01T16:49:24;22.22;23.99
70170;DHT22;57543;45.442;9.212;2023-04-01T16:52:51;21.94;24.28
70170;DHT22;57543;45.442;9.212;2023-04-01T16:59:27;21.56;24.63
70170;DHT22;57543;45.442;9.212;2023-04-01T17:02:38;21.50;23.03
70170;DHT22;57543;45.442;9.212;2023-04-01T17:05:54;21.41;23.25
70170;DHT22;57543;45.442;9.212;2023-04-01T17:13:08;21.18;23.95
70170;DHT22;57543;45.442;9.212;2023-04-01T17:26:40;20.75;24.97
70170;DHT22;57543;45.442;9.212;2023-04-01T17:33:35;20.62;25.07
70170;DHT22;57543;45.442;9.212;2023-04-01T17:39:57;20.28;25.16
70170;DHT22;57543;45.442;9.212;2023-04-01T17:56:38;20.00;25.62
70170;DHT22;57543;45.442;9.212;2023-04-01T18:03:42;19.90;26.33
70170;DHT22;57543;45.442;9.212;2023-04-01T18:10:31;19.77;25.94
70170;DHT22;57543;45.442;9.212;2023-04-01T18:17:24;19.65;26.70
70170;DHT22;57543;45.442;9.212;2023-04-01T18:20:37;19.62;26.84
70170;DHT22;57543;45.442;9.212;2023-04-01T18:23:57;19.53;27.04
70170;DHT22;57543;45.442;9.212;2023-04-01T18:30:13;19.43;27.36
70170;DHT22;57543;45.442;9.212;2023-04-01T18:33:29;19.39;27.44
70170;DHT22;57543;45.442;9.212;2023-04-01T18:36:59;19.35;27.10
70170;DHT22;57543;45.442;9.212;2023-04-01T18:40:15;19.34;27.00
70170;DHT22;57543;45.442;9.212;2023-04-01T18:43:22;19.32;26.94
70170;DHT22;57543;45.442;9.212;2023-04-01T18:50:13;19.25;27.43
70170;DHT22;57543;45.442;9.212;2023-04-01T18:53:28;19.25;27.68
70170;DHT22;57543;45.442;9.212;2023-04-01T18:56:35;19.22;27.98
70170;DHT22;57543;45.442;9.212;2023-04-01T19:00:38;19.19;27.98
70170;DHT22;57543;45.442;9.212;2023-04-01T19:04:01;19.18;28.08
70170;DHT22;57543;45.442;9.212;2023-04-01T19:43:02;18.86;29.72
70170;DHT22;57543;45.442;9.212;2023-04-01T19:46:16;18.93;29.64
70170;DHT22;57543;45.442;9.212;2023-04-01T19:49:42;18.94;29.72
70170;DHT22;57543;45.442;9.212;2023-04-01T19:52:55;18.97;29.64
70170;DHT22;57543;45.442;9.212;2023-04-01T19:56:14;18.94;29.52
70170;DHT22;57543;45.442;9.212;2023-04-01T19:59:34;18.94;30.15
70170;DHT22;57543;45.442;9.212;2023-04-01T20:02:53;18.88;30.51
70170;DHT22;57543;45.442;9.212;2023-04-01T20:09:25;18.88;30.26
70170;DHT22;57543;45.442;9.212;2023-04-01T20:13:35;18.93;30.15
70170;DHT22;57543;45.442;9.212;2023-04-01T20:16:12;18.96;29.76
70170;DHT22;57543;45.442;9.212;2023-04-01T20:19:28;18.94;29.84
70170;DHT22;57543;45.442;9.212;2023-04-01T20:26:02;18.93;30.15
70170;DHT22;57543;45.442;9.212;2023-04-01T20:29:34;18.90;30.30
70170;DHT22;57543;45.442;9.212;2023-04-01T20:36:26;18.59;30.83
70170;DHT22;57543;45.442;9.212;2023-04-01T20:43:27;18.49;31.36
70170;DHT22;57543;45.442;9.212;2023-04-01T20:49:55;18.46;31.24
70170;DHT22;57543;45.442;9.212;2023-04-01T20:53:16;18.46;30.90
70170;DHT22;57543;45.442;9.212;2023-04-01T21:03:18;18.29;33.54
70170;DHT22;57543;45.442;9.212;2023-04-01T21:17:08;18.18;31.93
70170;DHT22;57543;45.442;9.212;2023-04-01T21:28:11;17.91;31.71
70170;DHT22;57543;45.442;9.212;2023-04-01T21:34:41;17.86;31.32
70170;DHT22;57543;45.442;9.212;2023-04-01T21:37:58;17.89;30.99
70170;DHT22;57543;45.442;9.212;2023-04-01T21:44:54;17.77;30.44
70170;DHT22;57543;45.442;9.212;2023-04-01T21:52:06;17.65;30.85
70170;DHT22;57543;45.442;9.212;2023-04-01T22:02:38;17.72;30.33
70170;DHT22;57543;45.442;9.212;2023-04-01T22:05:55;17.67;30.52
70170;DHT22;57543;45.442;9.212;2023-04-01T22:19:26;17.73;30.94
70170;DHT22;57543;45.442;9.212;2023-04-01T22:26:10;17.52;31.46
70170;DHT22;57543;45.442;9.212;2023-04-01T22:29:22;17.39;31.97
70170;DHT22;57543;45.442;9.212;2023-04-01T22:39:36;17.14;32.31
70170;DHT22;57543;45.442;9.212;2023-04-01T22:42:46;17.00;33.20
70170;DHT22;57543;45.442;9.212;2023-04-01T22:49:38;17.03;33.00
70170;DHT22;57543;45.442;9.212;2023-04-01T22:52:50;16.97;32.72
70170;DHT22;57543;45.442;9.212;2023-04-01T22:56:01;16.93;32.99
70170;DHT22;57543;45.442;9.212;2023-04-01T22:59:34;16.95;32.92
70170;DHT22;57543;45.442;9.212;2023-04-01T23:02:43;16.85;33.54
70170;DHT22;57543;45.442;9.212;2023-04-01T23:05:56;16.77;33.96
70170;DHT22;57543;45.442;9.212;2023-04-01T23:12:08;16.70;33.64
70170;DHT22;57543;45.442;9.212;2023-04-01T23:15:14;16.77;33.36
70170;DHT22;57543;45.442;9.212;2023-04-01T23:18:33;16.77;33.18
70170;DHT22;57543;45.442;9.212;2023-04-01T23:21:46;16.72;33.09
70170;DHT22;57543;45.442;9.212;2023-04-01T23:25:05;16.65;33.40
70170;DHT22;57543;45.442;9.212;2023-04-01T23:31:38;16.60;33.50
70170;DHT22;57543;45.442;9.212;2023-04-01T23:34:51;16.62;33.63
70170;DHT22;57543;45.442;9.212;2023-04-01T23:37:55;16.65;33.15
70170;DHT22;57543;45.442;9.212;2023-04-01T23:40:59;16.62;33.30
70170;DHT22;57543;45.442;9.212;2023-04-01T23:44:08;16.59;33.66
70170;DHT22;57543;45.442;9.212;2023-04-01T23:47:16;16.57;34.29
70170;DHT22;57543;45.442;9.212;2023-04-01T23:50:24;16.46;34.37
70170;DHT22;57543;45.442;9.212;2023-04-01T23:53:32;16.55;34.16
70170;DHT22;57543;45.442;9.212;2023-04-01T23:56:48;16.51;34.12
